createdAt,value
2023-04-20T00:45:57.061Z,2.27
2023-04-20T00:48:42.567Z,2.50
2023-04-20T00:51:29.394Z,2.60
2023-04-20T00:54:16.397Z,3.35
2023-04-20T00:57:01.271Z,2.50
2023-04-20T00:59:46.448Z,2.30
2023-04-20T01:48:09.887Z,2.15
2023-04-20T01:50:55.317Z,2.80
2023-04-20T01:53:40.219Z,2.10
2023-04-20T01:56:26.245Z,2.15
2023-04-20T01:59:11.023Z,2.20
2023-04-20T02:47:38.512Z,2.15
2023-04-20T02:50:24.480Z,2.30
2023-04-20T02:53:19.992Z,2.00
2023-04-20T02:56:10.916Z,2.38
2023-04-20T02:59:11.078Z,1.93
2023-04-20T03:46:28.989Z,2.27
2023-04-20T03:49:15.630Z,2.10
2023-04-20T03:52:00.829Z,2.00
2023-04-20T03:54:45.642Z,2.00
2023-04-20T03:57:34.216Z,2.05
2023-04-20T04:46:08.241Z,1.77
2023-04-20T04:48:53.736Z,2.13
2023-04-20T04:51:38.758Z,2.03
2023-04-20T04:54:24.116Z,1.80
2023-04-20T04:57:09.286Z,2.25
2023-04-20T04:59:54.685Z,2.10
2023-04-20T05:02:40.443Z,1.88
2023-04-20T05:05:25.901Z,2.00
2023-04-20T05:08:11.176Z,1.80
2023-04-20T05:10:57.235Z,1.90
2023-04-20T05:13:42.281Z,1.80
2023-04-20T05:16:27.562Z,1.85
2023-04-20T05:19:12.756Z,2.17
2023-04-20T05:21:57.718Z,1.92
2023-04-20T05:24:42.677Z,1.90
2023-04-20T05:27:27.492Z,2.07
2023-04-20T05:30:20.588Z,1.80
2023-04-20T05:33:06.993Z,2.05
2023-04-20T05:35:56.474Z,2.00
2023-04-20T05:38:41.602Z,2.05
2023-04-20T05:41:27.466Z,1.97
2023-04-20T05:44:12.197Z,1.80
2023-04-20T05:46:57.016Z,1.98
2023-04-20T05:49:42.406Z,1.88
2023-04-20T05:52:27.245Z,2.03
2023-04-20T05:55:12.184Z,1.73
2023-04-20T05:57:56.994Z,1.67
2023-04-20T06:00:42.441Z,1.98
2023-04-20T06:03:27.986Z,2.15
2023-04-20T06:06:14.491Z,1.98
2023-04-20T06:09:00.544Z,1.70
2023-04-20T06:11:45.823Z,1.80
2023-04-20T06:14:30.857Z,1.90
2023-04-20T06:17:16.177Z,1.75
2023-04-20T06:20:01.218Z,1.90
2023-04-20T06:22:46.306Z,1.80
2023-04-20T06:25:31.434Z,1.80
2023-04-20T06:28:16.604Z,1.80
2023-04-20T06:31:02.041Z,2.10
2023-04-20T06:33:47.316Z,2.70
2023-04-20T06:36:32.597Z,2.30
2023-04-20T06:39:18.047Z,2.20
2023-04-20T06:42:03.399Z,2.40
2023-04-20T06:44:48.874Z,1.90
2023-04-20T06:47:34.369Z,2.47
2023-04-20T06:50:19.548Z,2.50
2023-04-20T06:53:04.621Z,2.20
2023-04-20T06:55:49.728Z,2.50
2023-04-20T06:58:35.145Z,2.30
2023-04-20T07:01:20.278Z,2.20
2023-04-20T07:04:05.748Z,2.40
2023-04-20T07:06:53.390Z,1.92
2023-04-20T07:09:38.983Z,2.22
2023-04-20T07:12:23.948Z,2.40
2023-04-20T07:15:08.995Z,2.28
2023-04-20T07:17:54.147Z,2.07
2023-04-20T07:20:39.649Z,1.90
2023-04-20T07:23:24.958Z,2.22
2023-04-20T07:26:10.098Z,2.38
2023-04-20T07:28:55.388Z,2.30
2023-04-20T07:31:40.787Z,2.10
2023-04-20T07:34:26.280Z,2.20
2023-04-20T07:37:12.543Z,2.22
2023-04-20T07:39:57.624Z,2.20
2023-04-20T07:42:42.878Z,1.90
2023-04-20T07:45:27.702Z,2.03
2023-04-20T07:48:13.064Z,2.15
2023-04-20T07:50:58.393Z,2.10
2023-04-20T07:53:43.907Z,1.92
2023-04-20T07:56:28.668Z,2.05
2023-04-20T07:59:13.671Z,2.20
2023-04-20T08:02:00.551Z,2.25
2023-04-20T08:04:46.433Z,2.20
2023-04-20T08:07:31.942Z,1.92
2023-04-20T08:10:16.924Z,2.13
2023-04-20T08:13:01.916Z,2.10
2023-04-20T08:15:47.529Z,2.17
2023-04-20T08:18:32.773Z,2.20
2023-04-20T08:21:18.386Z,1.90
2023-04-20T08:24:04.268Z,2.20
2023-04-20T08:26:49.537Z,2.13
2023-04-20T08:29:34.786Z,2.10
2023-04-20T08:32:22.631Z,2.17
2023-04-20T08:35:08.575Z,2.13
2023-04-20T08:37:53.857Z,2.15
2023-04-20T08:40:39.096Z,2.13
2023-04-20T08:43:24.416Z,1.83
2023-04-20T08:46:09.634Z,2.15
2023-04-20T08:48:57.715Z,2.00
2023-04-20T08:51:43.284Z,1.95
2023-04-20T08:54:28.447Z,2.10
2023-04-20T08:57:13.285Z,1.83
2023-04-20T08:59:58.098Z,1.92
2023-04-20T09:02:53.528Z,2.00
2023-04-20T09:05:39.919Z,2.15
2023-04-20T09:08:39.840Z,2.10
2023-04-20T09:11:25.927Z,2.00
2023-04-20T09:14:16.419Z,1.80
2023-04-20T09:17:04.976Z,1.80
2023-04-20T09:19:53.663Z,2.38
2023-04-20T09:22:39.108Z,2.03
2023-04-20T09:25:28.823Z,1.92
2023-04-20T09:28:14.190Z,2.15
2023-04-20T09:30:59.485Z,1.92
2023-04-20T09:33:44.467Z,2.00
2023-04-20T09:36:37.529Z,2.17
2023-04-20T09:39:23.636Z,2.10
2023-04-20T09:42:11.522Z,1.83
2023-04-20T09:44:57.295Z,2.30
2023-04-20T09:47:42.984Z,2.15
2023-04-20T09:50:38.288Z,2.20
2023-04-20T09:53:31.614Z,2.20
2023-04-20T09:56:16.843Z,2.17
2023-04-20T09:59:03.754Z,1.90
2023-04-20T10:01:48.916Z,2.10
2023-04-20T10:04:34.385Z,2.00
2023-04-20T10:07:26.796Z,1.90
2023-04-20T10:10:16.084Z,2.00
2023-04-20T10:13:01.605Z,2.00
2023-04-20T10:15:46.545Z,2.38
2023-04-20T10:18:31.707Z,2.10
2023-04-20T10:21:16.997Z,1.90
2023-04-20T10:24:03.152Z,1.80
2023-04-20T10:26:48.749Z,1.90
2023-04-20T10:29:36.501Z,1.90
2023-04-20T10:32:31.073Z,2.00
2023-04-20T10:35:16.392Z,1.70
2023-04-20T10:38:01.374Z,2.17
2023-04-20T10:40:46.615Z,1.90
2023-04-20T10:43:32.124Z,1.98
2023-04-20T10:46:18.086Z,1.97
2023-04-20T10:49:03.546Z,1.50
2023-04-20T10:51:49.978Z,1.95
2023-04-20T10:54:39.177Z,2.03
2023-04-20T10:57:24.190Z,2.00
2023-04-20T11:00:20.237Z,1.80
2023-04-20T11:03:05.566Z,1.88
2023-04-20T11:05:51.747Z,2.05
2023-04-20T11:08:37.692Z,1.90
2023-04-20T11:11:29.640Z,2.05
2023-04-20T11:14:15.137Z,1.90
2023-04-20T11:17:00.718Z,2.10
2023-04-20T11:19:47.051Z,2.33
2023-04-20T11:22:32.910Z,2.00
2023-04-20T11:25:17.955Z,2.10
2023-04-20T11:28:09.216Z,2.10
2023-04-20T11:30:54.433Z,2.05
2023-04-20T11:33:39.407Z,2.03
2023-04-20T11:36:25.018Z,4.15
2023-04-20T11:39:12.853Z,4.50
2023-04-20T11:41:58.223Z,3.23
2023-04-20T11:44:43.663Z,2.83
2023-04-20T11:47:28.616Z,3.30
2023-04-20T11:50:14.361Z,2.90
2023-04-20T11:52:59.779Z,3.05
2023-04-20T11:55:44.789Z,2.87
2023-04-20T11:58:29.777Z,3.40
2023-04-20T12:01:16.826Z,3.30
2023-04-20T12:04:02.473Z,3.42
2023-04-20T12:06:47.834Z,3.97
2023-04-20T12:09:37.134Z,4.87
2023-04-20T12:12:22.203Z,8.73
2023-04-20T12:15:07.494Z,9.93
2023-04-20T12:17:53.180Z,14.50
2023-04-20T12:20:38.291Z,14.90
2023-04-20T12:23:23.117Z,21.03
2023-04-20T12:26:07.984Z,29.88
2023-04-20T12:28:53.613Z,39.78
2023-04-20T12:31:38.723Z,48.00
2023-04-20T12:34:24.146Z,45.63
2023-04-20T12:37:09.669Z,38.27
2023-04-20T12:39:54.913Z,41.65
2023-04-20T12:42:40.554Z,41.22
2023-04-20T12:45:25.775Z,40.58
2023-04-20T12:48:10.928Z,39.58
2023-04-20T12:50:56.383Z,38.63
2023-04-20T12:53:41.538Z,35.00
2023-04-20T12:56:26.927Z,34.80
2023-04-20T12:59:12.231Z,37.17
2023-04-20T13:01:57.124Z,37.42
2023-04-20T13:04:42.761Z,36.10
2023-04-20T13:07:28.058Z,35.20
2023-04-20T13:10:13.341Z,33.65
2023-04-20T13:12:59.629Z,27.05
2023-04-20T13:15:44.873Z,20.17
2023-04-20T13:18:29.778Z,13.97
2023-04-20T13:21:15.440Z,11.43
2023-04-20T13:24:00.896Z,10.70
2023-04-20T13:26:45.751Z,9.80
2023-04-20T13:29:31.169Z,9.38
2023-04-20T13:32:16.059Z,8.70
2023-04-20T13:35:02.057Z,7.63
2023-04-20T13:37:47.173Z,8.10
2023-04-20T13:40:32.196Z,7.95
2023-04-20T13:43:17.668Z,8.25
2023-04-20T13:46:04.392Z,7.90
2023-04-20T13:48:49.725Z,8.10
2023-04-20T13:51:35.105Z,7.68
2023-04-20T13:54:20.854Z,7.85
2023-04-20T13:57:06.017Z,7.53
2023-04-20T13:59:51.810Z,7.47
2023-04-20T14:02:37.028Z,7.07
2023-04-20T14:05:22.546Z,7.10
2023-04-20T14:08:07.950Z,7.00
2023-04-20T14:10:52.875Z,7.10
2023-04-20T14:13:38.198Z,6.97
2023-04-20T14:16:24.875Z,6.80
2023-04-20T14:19:10.328Z,7.50
2023-04-20T14:21:55.308Z,7.40
2023-04-20T14:24:40.748Z,7.82
2023-04-20T14:27:25.678Z,7.30
2023-04-20T14:30:11.507Z,7.60
2023-04-20T14:32:57.725Z,6.72
2023-04-20T14:35:43.281Z,7.32
2023-04-20T14:38:28.542Z,7.03
2023-04-20T14:41:14.891Z,7.00
2023-04-20T14:44:00.247Z,6.28
2023-04-20T14:46:45.308Z,7.05
2023-04-20T14:49:31.481Z,6.68
2023-04-20T14:52:16.489Z,6.20
2023-04-20T14:55:01.218Z,6.73
2023-04-20T14:57:46.189Z,6.30
2023-04-20T15:00:31.306Z,7.00
2023-04-20T15:03:17.201Z,6.70
2023-04-20T15:06:02.997Z,6.25
2023-04-20T15:08:48.028Z,6.20
2023-04-20T15:11:32.903Z,6.57
2023-04-20T15:14:18.150Z,6.35
2023-04-20T15:17:03.756Z,6.18
2023-04-20T15:19:49.161Z,6.50
2023-04-20T15:22:33.965Z,6.57
2023-04-20T15:25:18.949Z,6.93
2023-04-20T15:28:04.361Z,6.68
2023-04-20T15:30:49.446Z,6.40
2023-04-20T15:33:35.077Z,7.05
2023-04-20T15:36:20.489Z,6.60
2023-04-20T15:39:05.920Z,6.60
2023-04-20T15:41:51.531Z,6.65
2023-04-20T15:44:37.016Z,6.40
2023-04-20T15:47:22.256Z,7.00
2023-04-20T15:50:07.788Z,6.80
2023-04-20T15:52:54.025Z,6.75
2023-04-20T15:55:39.295Z,6.88
2023-04-20T15:58:24.304Z,6.53
2023-04-20T16:01:09.322Z,6.80
2023-04-20T16:03:54.883Z,6.97
2023-04-20T16:06:40.878Z,6.60
2023-04-20T16:09:25.638Z,7.20
2023-04-20T16:12:11.197Z,6.63
2023-04-20T16:14:57.113Z,7.03
2023-04-20T16:17:42.672Z,6.60
2023-04-20T16:20:28.278Z,6.55
2023-04-20T16:23:13.667Z,6.20
2023-04-20T16:25:58.741Z,6.43
2023-04-20T16:28:43.684Z,6.40
2023-04-20T16:31:29.604Z,7.00
2023-04-20T16:34:14.638Z,6.78
2023-04-20T16:36:59.957Z,6.55
2023-04-20T16:39:45.123Z,6.55
2023-04-20T16:42:30.092Z,7.03
2023-04-20T16:45:14.970Z,6.40
2023-04-20T16:48:00.663Z,6.60
2023-04-20T16:50:46.189Z,6.68
2023-04-20T16:53:31.249Z,6.60
2023-04-20T16:56:16.254Z,6.40
2023-04-20T16:59:01.507Z,6.53
2023-04-20T17:01:48.965Z,6.57
2023-04-20T17:04:35.750Z,6.93
2023-04-20T17:07:20.828Z,6.07
2023-04-20T17:10:05.965Z,6.53
2023-04-20T17:12:51.139Z,6.33
2023-04-20T17:15:36.720Z,6.47
2023-04-20T17:18:21.964Z,6.50
2023-04-20T17:21:06.900Z,6.72
2023-04-20T17:23:52.175Z,6.18
2023-04-20T17:26:37.124Z,6.13
2023-04-20T17:29:22.389Z,6.10
2023-04-20T17:32:07.402Z,6.32
2023-04-20T17:34:53.704Z,6.50
2023-04-20T17:37:38.887Z,5.90
2023-04-20T17:40:23.930Z,5.93
2023-04-20T17:43:09.340Z,5.60
2023-04-20T17:45:54.168Z,6.38
2023-04-20T17:48:39.547Z,6.38
2023-04-20T17:51:24.499Z,6.53
2023-04-20T17:54:09.661Z,5.87
2023-04-20T17:56:54.857Z,6.15
2023-04-20T17:59:42.266Z,6.28
2023-04-20T18:02:27.702Z,6.28
2023-04-20T18:05:12.920Z,5.93
2023-04-20T18:07:57.881Z,6.10
2023-04-20T18:10:42.768Z,5.95
2023-04-20T18:13:28.046Z,6.18
2023-04-20T18:16:13.232Z,5.80
2023-04-20T18:18:58.767Z,6.03
2023-04-20T18:21:43.577Z,5.87
2023-04-20T18:24:28.637Z,5.95
2023-04-20T18:27:13.804Z,6.20
2023-04-20T18:30:02.316Z,5.55
2023-04-20T18:32:48.022Z,5.60
2023-04-20T18:35:34.049Z,5.70
2023-04-20T18:38:19.200Z,5.80
2023-04-20T18:41:04.850Z,5.60
2023-04-20T18:43:52.555Z,5.20
2023-04-20T18:46:38.412Z,5.80
2023-04-20T18:49:24.305Z,6.20
2023-04-20T18:52:09.331Z,6.00
2023-04-20T18:54:55.337Z,5.70
2023-04-20T18:57:40.747Z,5.60
2023-04-20T19:00:25.821Z,5.60
2023-04-20T19:03:11.259Z,6.27
2023-04-20T19:05:56.140Z,5.13
2023-04-20T19:08:41.140Z,5.75
2023-04-20T19:11:25.936Z,5.60
2023-04-20T19:14:12.180Z,5.65
2023-04-20T19:16:57.372Z,5.77
2023-04-20T19:19:42.792Z,5.40
2023-04-20T19:22:28.366Z,5.65
2023-04-20T19:25:13.356Z,5.18
2023-04-20T19:27:58.931Z,5.25
2023-04-20T19:30:43.933Z,5.27
2023-04-20T19:33:28.963Z,5.13
2023-04-20T19:36:13.813Z,5.53
2023-04-20T19:38:58.732Z,5.30
2023-04-20T19:41:43.728Z,5.20
2023-04-20T19:44:28.549Z,5.40
2023-04-20T19:47:13.341Z,4.97
2023-04-20T19:49:58.084Z,5.47
2023-04-20T19:52:42.943Z,5.18
2023-04-20T19:55:27.720Z,5.10
2023-04-20T19:58:13.399Z,4.90
2023-04-20T20:00:59.526Z,5.38
2023-04-20T20:03:44.863Z,4.80
2023-04-20T20:06:30.968Z,4.85
2023-04-20T20:09:17.662Z,5.25
2023-04-20T20:12:04.721Z,4.93
2023-04-20T20:14:50.180Z,5.32
2023-04-20T20:17:35.615Z,5.25
2023-04-20T20:20:22.587Z,4.82
2023-04-20T20:23:07.804Z,5.15
2023-04-20T20:25:52.791Z,5.50
2023-04-20T20:28:37.900Z,4.45
2023-04-20T20:31:23.389Z,5.00
2023-04-20T20:34:09.279Z,5.30
2023-04-20T20:36:54.563Z,5.32
2023-04-20T20:39:39.836Z,4.50
2023-04-20T20:42:25.648Z,5.00
2023-04-20T20:45:12.819Z,5.35
2023-04-20T20:47:58.185Z,4.93
2023-04-20T20:50:43.594Z,4.68
2023-04-20T20:53:28.512Z,4.87
2023-04-20T20:56:14.003Z,5.07
2023-04-20T20:58:58.841Z,5.10
2023-04-20T21:01:43.807Z,4.60
2023-04-20T21:04:30.158Z,4.63
2023-04-20T21:07:15.349Z,4.80
2023-04-20T21:10:01.010Z,4.45
2023-04-20T21:12:46.090Z,4.55
2023-04-20T21:15:31.000Z,4.70
2023-04-20T21:18:16.140Z,4.55
2023-04-20T21:21:00.964Z,4.60
2023-04-20T21:23:45.761Z,4.75
2023-04-20T21:26:35.691Z,4.45
2023-04-20T21:29:21.113Z,4.35
2023-04-20T21:32:06.320Z,4.55
2023-04-20T21:34:52.564Z,4.13
2023-04-20T21:37:37.696Z,4.35
2023-04-20T21:40:25.140Z,4.20
2023-04-20T21:43:10.764Z,4.32
2023-04-20T21:45:55.981Z,5.03
2023-04-20T21:48:41.041Z,4.20
2023-04-20T21:51:26.352Z,4.65
2023-04-20T21:54:11.842Z,4.40
2023-04-20T21:56:57.052Z,4.40
2023-04-20T21:59:42.188Z,4.75
2023-04-20T22:02:27.270Z,4.53
2023-04-20T22:05:12.881Z,3.95
2023-04-20T22:07:58.036Z,4.55
2023-04-20T22:10:43.010Z,4.05
2023-04-20T22:13:27.775Z,4.35
2023-04-20T22:16:12.902Z,4.43
2023-04-20T22:18:58.264Z,3.83
2023-04-20T22:21:43.650Z,3.90
2023-04-20T22:24:28.616Z,4.15
2023-04-20T22:27:13.781Z,4.20
2023-04-20T22:29:59.665Z,4.03
2023-04-20T22:32:44.852Z,3.60
2023-04-20T22:35:30.524Z,4.00
2023-04-20T22:38:16.187Z,4.05
2023-04-20T22:41:01.575Z,4.00
2023-04-20T22:43:46.775Z,4.50
2023-04-20T22:46:31.642Z,3.85
2023-04-20T22:49:16.737Z,3.90
2023-04-20T22:52:01.924Z,3.75
2023-04-20T22:54:48.230Z,4.05
2023-04-20T22:57:33.839Z,3.70
2023-04-20T23:47:48.877Z,3.45
2023-04-20T23:50:34.365Z,3.55
2023-04-20T23:53:19.701Z,3.47
2023-04-20T23:56:05.257Z,3.40
2023-04-20T23:58:51.003Z,3.40
